createdAt,value
2022-10-09T00:00:10.414Z,90.78
2022-10-09T00:01:10.422Z,90.78
2022-10-09T00:02:10.421Z,89.85
2022-10-09T00:03:10.365Z,89.09
2022-10-09T00:04:10.406Z,88.26
2022-10-09T00:05:10.390Z,88.06
2022-10-09T00:06:10.336Z,88.06
2022-10-09T00:07:10.331Z,88.17
2022-10-09T00:08:10.350Z,88.26
2022-10-09T00:09:10.334Z,88.47
2022-10-09T00:10:10.322Z,89.09
2022-10-09T00:11:10.292Z,89.29
2022-10-09T00:12:10.279Z,89.61
2022-10-09T00:13:10.247Z,89.81
2022-10-09T00:14:10.269Z,89.91
2022-10-09T00:15:10.229Z,90.01
2022-10-09T00:16:10.241Z,90.47
2022-10-09T00:17:10.271Z,90.47
2022-10-09T00:18:10.205Z,90.47
2022-10-09T00:19:10.630Z,90.67
2022-10-09T00:20:10.170Z,90.78
2022-10-09T00:21:10.193Z,90.67
2022-10-09T00:22:10.171Z,90.57
2022-10-09T00:23:10.140Z,90.57
2022-10-09T00:24:10.150Z,90.47
2022-10-09T00:25:10.123Z,90.37
2022-10-09T00:26:10.152Z,90.37
2022-10-09T00:27:10.094Z,90.67
2022-10-09T00:28:10.119Z,90.88
2022-10-09T00:29:10.061Z,91.09
2022-10-09T00:30:10.081Z,91.40
2022-10-09T00:31:10.141Z,91.91
2022-10-09T00:32:10.091Z,91.71
2022-10-09T00:33:10.025Z,91.71
2022-10-09T00:34:10.074Z,91.50
2022-10-09T00:35:10.016Z,91.40
2022-10-09T00:36:10.063Z,91.40
2022-10-09T00:37:10.016Z,91.36
2022-10-09T00:38:09.963Z,91.30
2022-10-09T00:39:10.011Z,91.25
2022-10-09T00:40:09.948Z,91.15
2022-10-09T00:41:09.941Z,90.84
2022-10-09T00:42:09.958Z,90.84
2022-10-09T00:43:09.918Z,90.84
2022-10-09T00:44:09.906Z,90.73
2022-10-09T00:45:09.929Z,90.73
2022-10-09T00:46:09.937Z,91.05
2022-10-09T00:47:09.885Z,91.05
2022-10-09T00:48:09.846Z,90.73
2022-10-09T00:49:09.869Z,90.84
2022-10-09T00:50:09.830Z,91.05
2022-10-09T00:51:09.806Z,90.94
2022-10-09T00:52:09.825Z,90.94
2022-10-09T00:53:09.830Z,90.73
2022-10-09T00:54:09.827Z,90.53
2022-10-09T00:55:09.792Z,90.43
2022-10-09T00:56:09.768Z,90.12
2022-10-09T00:57:09.758Z,89.29
2022-10-09T00:58:09.779Z,88.68
2022-10-09T00:59:09.732Z,87.96
2022-10-09T01:00:09.754Z,88.17
2022-10-09T01:01:09.727Z,87.99
2022-10-09T01:02:09.751Z,89.28
2022-10-09T01:03:09.703Z,89.79
2022-10-09T01:04:09.793Z,90.45
2022-10-09T01:05:09.662Z,91.07
2022-10-09T01:06:09.653Z,91.28
2022-10-09T01:07:09.649Z,91.17
2022-10-09T01:08:09.621Z,90.76
2022-10-09T01:09:09.600Z,90.45
2022-10-09T01:10:09.641Z,90.41
2022-10-09T01:11:09.604Z,90.00
2022-10-09T01:12:09.593Z,90.20
2022-10-09T01:13:09.561Z,90.31
2022-10-09T01:14:09.604Z,90.31
2022-10-09T01:15:09.582Z,90.61
2022-10-09T01:16:09.601Z,90.61
2022-10-09T01:17:09.558Z,90.10
2022-10-09T01:18:09.504Z,89.89
2022-10-09T01:19:09.512Z,89.89
2022-10-09T01:20:09.501Z,89.44
2022-10-09T01:21:09.497Z,88.92
2022-10-09T01:22:09.492Z,88.51
2022-10-09T01:23:09.465Z,87.79
2022-10-09T01:24:09.457Z,87.79
2022-10-09T01:25:09.436Z,87.79
2022-10-09T01:26:09.425Z,87.69
2022-10-09T01:27:09.471Z,87.38
2022-10-09T01:28:09.441Z,87.07
2022-10-09T01:29:09.378Z,86.87
2022-10-09T01:30:09.399Z,86.66
2022-10-09T01:31:09.407Z,86.87
2022-10-09T01:32:09.359Z,87.07
2022-10-09T01:33:09.356Z,87.07
2022-10-09T01:34:09.370Z,87.07
2022-10-09T01:35:09.309Z,87.27
2022-10-09T01:36:09.317Z,87.27
2022-10-09T01:37:09.310Z,87.17
2022-10-09T01:38:09.307Z,87.17
2022-10-09T01:39:09.299Z,87.27
2022-10-09T01:40:09.262Z,87.48
2022-10-09T01:41:09.269Z,87.38
2022-10-09T01:42:09.274Z,87.17
2022-10-09T01:43:09.228Z,86.97
2022-10-09T01:44:09.242Z,87.27
2022-10-09T01:45:09.190Z,87.17
2022-10-09T01:46:09.262Z,87.38
2022-10-09T01:47:09.209Z,87.17
2022-10-09T01:48:09.174Z,87.59
2022-10-09T01:49:09.151Z,87.79
2022-10-09T01:50:09.139Z,87.90
2022-10-09T01:51:09.142Z,87.79
2022-10-09T01:52:09.135Z,87.69
2022-10-09T01:53:09.130Z,87.90
2022-10-09T01:54:09.101Z,87.90
2022-10-09T01:55:09.092Z,88.41
2022-10-09T01:56:09.070Z,89.13
2022-10-09T01:57:09.080Z,89.65
2022-10-09T01:58:09.120Z,89.54
2022-10-09T01:59:13.516Z,89.44
2022-10-09T02:00:10.042Z,89.44
2022-10-09T02:01:09.057Z,89.54
2022-10-09T02:02:09.149Z,89.79
2022-10-09T02:03:08.993Z,90.00
2022-10-09T02:04:09.121Z,90.10
2022-10-09T02:05:08.985Z,90.10
2022-10-09T02:06:08.953Z,90.31
2022-10-09T02:07:08.984Z,90.20
2022-10-09T02:08:08.947Z,90.41
2022-10-09T02:09:08.948Z,90.51
2022-10-09T02:10:08.957Z,90.82
2022-10-09T02:11:08.908Z,90.61
2022-10-09T02:12:08.908Z,90.37
2022-10-09T02:13:08.901Z,90.26
2022-10-09T02:14:08.864Z,90.16
2022-10-09T02:15:08.867Z,90.06
2022-10-09T02:16:08.938Z,90.16
2022-10-09T02:17:08.875Z,90.16
2022-10-09T02:18:08.824Z,89.95
2022-10-09T02:19:08.808Z,89.65
2022-10-09T02:20:08.822Z,88.82
2022-10-09T02:21:08.827Z,88.45
2022-10-09T02:22:08.822Z,88.45
2022-10-09T02:23:08.782Z,88.65
2022-10-09T02:24:08.778Z,88.45
2022-10-09T02:25:08.739Z,88.24
2022-10-09T02:26:08.753Z,88.04
2022-10-09T02:27:08.796Z,88.14
2022-10-09T02:28:08.746Z,88.14
2022-10-09T02:29:08.733Z,88.45
2022-10-09T02:30:08.679Z,88.65
2022-10-09T02:31:08.701Z,88.76
2022-10-09T02:32:08.703Z,88.76
2022-10-09T02:33:08.706Z,88.86
2022-10-09T02:34:08.640Z,89.07
2022-10-09T02:35:08.652Z,89.07
2022-10-09T02:36:08.634Z,89.17
2022-10-09T02:37:08.641Z,89.07
2022-10-09T02:38:08.601Z,89.22
2022-10-09T02:39:08.661Z,89.42
2022-10-09T02:40:10.885Z,90.25
2022-10-09T02:41:08.592Z,90.04
2022-10-09T02:42:08.567Z,90.25
2022-10-09T02:43:08.545Z,90.04
2022-10-09T02:44:08.589Z,89.94
2022-10-09T02:45:08.525Z,89.83
2022-10-09T02:46:08.543Z,89.83
2022-10-09T02:47:08.493Z,89.94
2022-10-09T02:48:08.473Z,89.94
2022-10-09T02:49:08.495Z,89.83
2022-10-09T02:50:08.509Z,89.73
2022-10-09T02:51:08.458Z,89.32
2022-10-09T02:52:08.468Z,89.32
2022-10-09T02:53:08.448Z,89.52
2022-10-09T02:54:08.425Z,89.42
2022-10-09T02:55:08.416Z,89.42
2022-10-09T02:56:08.429Z,89.52
2022-10-09T02:57:08.399Z,89.62
2022-10-09T02:58:08.398Z,89.42
2022-10-09T02:59:08.374Z,89.01
2022-10-09T03:00:08.393Z,89.01
2022-10-09T03:01:08.326Z,89.11
2022-10-09T03:02:08.447Z,89.01
2022-10-09T03:03:08.425Z,89.11
2022-10-09T03:04:08.297Z,89.22
2022-10-09T03:05:08.302Z,89.32
2022-10-09T03:06:08.300Z,89.52
2022-10-09T03:07:08.291Z,89.52
2022-10-09T03:08:08.276Z,89.42
2022-10-09T03:09:08.238Z,89.42
2022-10-09T03:10:08.228Z,89.52
2022-10-09T03:11:08.213Z,89.42
2022-10-09T03:12:08.283Z,89.22
2022-10-09T03:13:08.203Z,89.11
2022-10-09T03:14:08.213Z,89.11
2022-10-09T03:15:08.184Z,89.11
2022-10-09T03:16:08.273Z,89.22
2022-10-09T03:17:08.181Z,89.11
2022-10-09T03:18:08.193Z,88.80
2022-10-09T03:19:08.142Z,88.70
2022-10-09T03:20:08.145Z,88.70
2022-10-09T03:21:08.121Z,88.80
2022-10-09T03:22:08.125Z,89.01
2022-10-09T03:23:08.072Z,89.01
2022-10-09T03:24:08.096Z,89.32
2022-10-09T03:25:08.085Z,89.42
2022-10-09T03:26:08.086Z,89.52
2022-10-09T03:27:08.034Z,89.62
2022-10-09T03:28:08.085Z,89.52
2022-10-09T03:29:08.047Z,89.56
2022-10-09T03:30:08.028Z,89.87
2022-10-09T03:31:08.082Z,89.98
2022-10-09T03:32:08.074Z,90.19
2022-10-09T03:33:08.001Z,90.19
2022-10-09T03:34:07.964Z,90.08
2022-10-09T03:35:07.945Z,90.08
2022-10-09T03:36:07.964Z,90.19
2022-10-09T03:37:07.959Z,90.39
2022-10-09T03:38:07.925Z,90.49
2022-10-09T03:39:07.905Z,90.49
2022-10-09T03:40:07.886Z,90.59
2022-10-09T03:41:07.927Z,90.59
2022-10-09T03:42:07.882Z,90.70
2022-10-09T03:43:07.872Z,90.49
2022-10-09T03:44:07.863Z,90.59
2022-10-09T03:45:07.817Z,90.70
2022-10-09T03:46:07.895Z,91.16
2022-10-09T03:47:07.862Z,91.26
2022-10-09T03:48:07.800Z,91.22
2022-10-09T03:49:07.789Z,91.22
2022-10-09T03:50:07.791Z,91.22
2022-10-09T03:51:07.757Z,91.01
2022-10-09T03:52:07.802Z,90.91
2022-10-09T03:53:07.760Z,91.01
2022-10-09T03:54:07.721Z,91.22
2022-10-09T03:55:07.710Z,90.80
2022-10-09T03:56:07.709Z,90.70
2022-10-09T03:57:07.754Z,90.59
2022-10-09T03:58:07.704Z,90.49
2022-10-09T03:59:07.697Z,90.49
2022-10-09T04:00:07.665Z,90.49
2022-10-09T04:01:07.714Z,90.28
2022-10-09T04:02:07.707Z,89.87
2022-10-09T04:03:07.704Z,89.52
2022-10-09T04:04:07.626Z,89.46
2022-10-09T04:05:07.606Z,89.11
2022-10-09T04:06:07.608Z,88.84
2022-10-09T04:07:07.658Z,88.64
2022-10-09T04:08:07.616Z,88.64
2022-10-09T04:09:07.576Z,88.43
2022-10-09T04:10:07.556Z,88.64
2022-10-09T04:11:07.525Z,88.43
2022-10-09T04:12:07.563Z,87.71
2022-10-09T04:13:07.577Z,87.50
2022-10-09T04:14:07.536Z,87.71
2022-10-09T04:15:07.497Z,88.47
2022-10-09T04:16:07.521Z,88.78
2022-10-09T04:17:07.494Z,88.98
2022-10-09T04:18:07.468Z,88.98
2022-10-09T04:19:07.490Z,88.78
2022-10-09T04:20:07.463Z,88.68
2022-10-09T04:21:07.463Z,88.57
2022-10-09T04:22:07.426Z,88.61
2022-10-09T04:23:07.406Z,88.61
2022-10-09T04:24:07.396Z,89.03
2022-10-09T04:25:07.366Z,89.03
2022-10-09T04:26:07.410Z,89.03
2022-10-09T04:27:07.389Z,89.07
2022-10-09T04:28:07.391Z,89.52
2022-10-09T04:29:07.340Z,90.25
2022-10-09T04:30:07.327Z,90.66
2022-10-09T04:31:07.364Z,91.38
2022-10-09T04:32:07.288Z,91.69
2022-10-09T04:33:12.579Z,91.90
2022-10-09T04:34:08.281Z,91.80
2022-10-09T04:35:07.259Z,91.59
2022-10-09T04:36:07.286Z,91.28
2022-10-09T04:37:07.243Z,91.17
2022-10-09T04:38:07.253Z,90.66
2022-10-09T04:39:07.240Z,90.77
2022-10-09T04:40:07.201Z,90.97
2022-10-09T04:41:07.180Z,91.07
2022-10-09T04:42:07.205Z,90.97
2022-10-09T04:43:07.197Z,91.07
2022-10-09T04:44:07.194Z,91.28
2022-10-09T04:45:07.181Z,91.38
2022-10-09T04:46:07.261Z,91.44
2022-10-09T04:47:11.174Z,91.24
2022-10-09T04:48:07.121Z,90.93
2022-10-09T04:49:07.107Z,90.62
2022-10-09T04:50:07.134Z,90.37
2022-10-09T04:51:07.126Z,90.16
2022-10-09T04:52:07.063Z,89.95
2022-10-09T04:53:07.057Z,89.65
2022-10-09T04:54:07.044Z,89.54
2022-10-09T04:55:07.052Z,89.54
2022-10-09T04:56:07.075Z,89.23
2022-10-09T04:57:07.054Z,88.92
2022-10-09T04:58:06.999Z,88.51
2022-10-09T04:59:06.997Z,88.76
2022-10-09T05:00:06.975Z,89.94
2022-10-09T05:01:07.084Z,90.66
2022-10-09T05:02:06.987Z,90.80
2022-10-09T05:03:06.950Z,91.42
2022-10-09T05:04:06.946Z,91.63
2022-10-09T05:05:06.926Z,91.84
2022-10-09T05:06:06.917Z,92.09
2022-10-09T05:07:06.947Z,92.40
2022-10-09T05:08:06.900Z,92.36
2022-10-09T05:09:06.887Z,92.36
2022-10-09T05:10:06.900Z,92.50
2022-10-09T05:11:06.847Z,92.67
2022-10-09T05:12:06.881Z,92.46
2022-10-09T05:13:06.837Z,92.36
2022-10-09T05:14:06.810Z,92.25
2022-10-09T05:15:06.829Z,92.15
2022-10-09T05:16:06.834Z,92.25
2022-10-09T05:17:13.960Z,92.25
2022-10-09T05:18:07.834Z,92.46
2022-10-09T05:19:06.782Z,92.36
2022-10-09T05:20:06.761Z,92.46
2022-10-09T05:21:06.784Z,92.42
2022-10-09T05:22:06.741Z,92.42
2022-10-09T05:23:06.720Z,92.21
2022-10-09T05:24:10.235Z,92.11
2022-10-09T05:25:06.700Z,91.90
2022-10-09T05:26:06.714Z,91.34
2022-10-09T05:27:06.688Z,90.93
2022-10-09T05:28:06.704Z,90.72
2022-10-09T05:29:06.674Z,90.72
2022-10-09T05:30:06.654Z,90.41
2022-10-09T05:31:06.622Z,90.20
2022-10-09T05:32:06.745Z,90.31
2022-10-09T05:33:06.615Z,89.89
2022-10-09T05:34:06.573Z,89.54
2022-10-09T05:35:06.573Z,89.44
2022-10-09T05:36:06.576Z,89.23
2022-10-09T05:37:06.615Z,89.13
2022-10-09T05:38:06.538Z,89.03
2022-10-09T05:39:06.547Z,88.82
2022-10-09T05:40:06.538Z,88.51
2022-10-09T05:41:06.495Z,88.10
2022-10-09T05:42:06.501Z,87.99
2022-10-09T05:43:06.513Z,88.20
2022-10-09T05:44:06.474Z,88.51
2022-10-09T05:45:06.465Z,88.71
2022-10-09T05:46:06.541Z,88.51
2022-10-09T05:47:06.468Z,88.61
2022-10-09T05:48:06.455Z,88.82
2022-10-09T05:49:06.426Z,89.03
2022-10-09T05:50:06.396Z,88.92
2022-10-09T05:51:06.387Z,88.96
2022-10-09T05:52:06.430Z,88.86
2022-10-09T05:53:06.425Z,89.07
2022-10-09T05:54:06.407Z,89.48
2022-10-09T05:55:06.347Z,89.59
2022-10-09T05:56:06.340Z,89.69
2022-10-09T05:57:06.369Z,89.69
2022-10-09T05:58:06.360Z,89.79
2022-10-09T05:59:06.308Z,89.69
2022-10-09T06:00:06.345Z,89.69
2022-10-09T06:01:06.414Z,89.44
2022-10-09T06:02:06.360Z,89.23
2022-10-09T06:03:06.264Z,89.23
2022-10-09T06:04:06.256Z,89.13
2022-10-09T06:05:06.250Z,88.92
2022-10-09T06:06:06.261Z,88.41
2022-10-09T06:07:06.269Z,88.41
2022-10-09T06:08:06.217Z,88.41
2022-10-09T06:09:06.179Z,88.31
2022-10-09T06:10:06.180Z,88.20
2022-10-09T06:11:06.216Z,88.10
2022-10-09T06:12:06.176Z,88.10
2022-10-09T06:13:06.132Z,88.20
2022-10-09T06:14:06.154Z,88.31
2022-10-09T06:15:06.123Z,88.31
2022-10-09T06:16:06.194Z,88.10
2022-10-09T06:17:06.164Z,87.79
2022-10-09T06:18:06.116Z,87.79
2022-10-09T06:19:06.442Z,87.58
2022-10-09T06:20:06.063Z,87.17
2022-10-09T06:21:06.057Z,87.17
2022-10-09T06:22:06.073Z,87.27
2022-10-09T06:23:06.055Z,87.23
2022-10-09T06:24:06.046Z,87.13
2022-10-09T06:25:06.017Z,87.13
2022-10-09T06:26:06.060Z,87.23
2022-10-09T06:27:06.014Z,87.34
2022-10-09T06:28:06.028Z,87.23
2022-10-09T06:29:05.954Z,87.23
2022-10-09T06:30:05.944Z,87.23
2022-10-09T06:31:06.020Z,87.13
2022-10-09T06:32:05.949Z,87.23
2022-10-09T06:33:05.922Z,87.34
2022-10-09T06:34:05.919Z,87.44
2022-10-09T06:35:05.895Z,87.34
2022-10-09T06:36:10.189Z,87.23
2022-10-09T06:37:05.910Z,86.88
2022-10-09T06:38:05.861Z,86.51
2022-10-09T06:39:05.857Z,86.41
2022-10-09T06:40:05.838Z,86.82
2022-10-09T06:41:05.850Z,86.82
2022-10-09T06:42:05.871Z,86.92
2022-10-09T06:43:05.811Z,86.82
2022-10-09T06:44:05.801Z,86.92
2022-10-09T06:45:05.768Z,86.92
2022-10-09T06:46:05.843Z,86.86
2022-10-09T06:47:05.789Z,87.07
2022-10-09T06:48:05.773Z,87.27
2022-10-09T06:49:05.729Z,87.07
2022-10-09T06:50:05.736Z,86.96
2022-10-09T06:51:05.699Z,87.07
2022-10-09T06:52:05.722Z,86.92
2022-10-09T06:53:05.678Z,87.02
2022-10-09T06:54:05.690Z,86.30
2022-10-09T06:55:05.663Z,86.10
2022-10-09T06:56:05.691Z,85.89
2022-10-09T06:57:05.630Z,86.10
2022-10-09T06:58:05.659Z,86.30
2022-10-09T06:59:05.635Z,85.78
2022-10-09T07:00:05.665Z,85.68
2022-10-09T07:01:05.647Z,85.78
2022-10-09T07:02:05.636Z,85.68
2022-10-09T07:03:05.613Z,85.23
2022-10-09T07:04:05.586Z,85.02
2022-10-09T07:05:05.663Z,85.02
2022-10-09T07:06:05.532Z,85.02
2022-10-09T07:07:05.539Z,84.81
2022-10-09T07:08:05.556Z,84.61
2022-10-09T07:09:05.497Z,84.47
2022-10-09T07:10:05.497Z,84.36
2022-10-09T07:11:05.521Z,84.06
2022-10-09T07:12:05.504Z,83.95
2022-10-09T07:13:05.456Z,83.95
2022-10-09T07:14:05.437Z,84.27
2022-10-09T07:15:05.426Z,83.85
2022-10-09T07:16:05.466Z,83.40
2022-10-09T07:17:05.467Z,83.33
2022-10-09T07:18:05.415Z,83.64
2022-10-09T07:19:05.409Z,83.75
2022-10-09T07:20:05.399Z,84.06
2022-10-09T07:21:05.375Z,84.06
2022-10-09T07:22:05.378Z,83.75
2022-10-09T07:23:05.409Z,83.95
2022-10-09T07:24:05.358Z,83.54
2022-10-09T07:25:05.307Z,83.40
2022-10-09T07:26:05.297Z,83.19
2022-10-09T07:27:05.298Z,82.78
2022-10-09T07:28:05.402Z,82.68
2022-10-09T07:29:05.315Z,82.33
2022-10-09T07:30:05.267Z,82.02
2022-10-09T07:31:05.323Z,82.12
2022-10-09T07:32:10.257Z,82.02
2022-10-09T07:33:06.311Z,81.81
2022-10-09T07:34:05.233Z,81.92
2022-10-09T07:35:05.208Z,81.51
2022-10-09T07:36:05.220Z,81.65
2022-10-09T07:37:05.207Z,82.16
2022-10-09T07:38:05.200Z,82.37
2022-10-09T07:39:05.180Z,82.23
2022-10-09T07:40:05.212Z,81.92
2022-10-09T07:41:05.152Z,81.92
2022-10-09T07:42:05.154Z,81.71
2022-10-09T07:43:05.134Z,81.51
2022-10-09T07:44:05.166Z,81.26
2022-10-09T07:45:05.113Z,81.16
2022-10-09T07:46:05.199Z,80.85
2022-10-09T07:47:05.072Z,80.75
2022-10-09T07:48:05.085Z,80.95
2022-10-09T07:49:05.087Z,80.85
2022-10-09T07:50:05.036Z,80.51
2022-10-09T07:51:05.032Z,80.30
2022-10-09T07:52:05.004Z,80.09
2022-10-09T07:53:05.027Z,80.09
2022-10-09T07:54:05.053Z,80.30
2022-10-09T07:55:05.015Z,79.88
2022-10-09T07:56:04.963Z,79.99
2022-10-09T07:57:04.964Z,79.99
2022-10-09T07:58:04.944Z,79.99
2022-10-09T07:59:04.939Z,79.99
2022-10-09T08:00:04.965Z,79.99
2022-10-09T08:01:05.003Z,80.30
2022-10-09T08:02:04.983Z,80.40
2022-10-09T08:03:04.971Z,80.09
2022-10-09T08:04:04.892Z,79.44
2022-10-09T08:05:04.876Z,79.44
2022-10-09T08:06:04.847Z,79.23
2022-10-09T08:07:04.877Z,79.13
2022-10-09T08:08:04.850Z,78.92
2022-10-09T08:09:04.897Z,78.78
2022-10-09T08:10:04.797Z,78.06
2022-10-09T08:11:04.831Z,78.06
2022-10-09T08:12:04.798Z,78.03
2022-10-09T08:13:04.802Z,78.06
2022-10-09T08:14:04.757Z,77.96
2022-10-09T08:15:04.782Z,78.06
2022-10-09T08:16:04.775Z,77.92
2022-10-09T08:17:04.721Z,78.03
2022-10-09T08:18:04.742Z,78.03
2022-10-09T08:19:04.774Z,77.82
2022-10-09T08:20:04.724Z,77.10
2022-10-09T08:21:04.719Z,77.41
2022-10-09T08:22:04.690Z,78.03
2022-10-09T08:23:04.667Z,78.47
2022-10-09T08:24:04.707Z,78.54
2022-10-09T08:25:04.631Z,78.33
2022-10-09T08:26:04.666Z,78.13
2022-10-09T08:27:04.635Z,77.89
2022-10-09T08:28:04.683Z,77.23
2022-10-09T08:29:04.624Z,76.51
2022-10-09T08:30:04.592Z,75.76
2022-10-09T08:31:04.623Z,75.45
2022-10-09T08:32:04.607Z,75.56
2022-10-09T08:33:04.566Z,75.87
2022-10-09T08:34:04.750Z,75.45
2022-10-09T08:35:04.537Z,75.45
2022-10-09T08:36:04.527Z,75.35
2022-10-09T08:37:04.537Z,75.21
2022-10-09T08:38:04.532Z,75.11
2022-10-09T08:39:04.486Z,74.70
2022-10-09T08:40:04.467Z,74.15
2022-10-09T08:41:04.489Z,73.85
2022-10-09T08:42:04.451Z,73.54
2022-10-09T08:43:04.465Z,73.61
2022-10-09T08:44:04.430Z,72.86
2022-10-09T08:45:04.451Z,72.55
2022-10-09T08:46:04.481Z,72.00
2022-10-09T08:47:04.407Z,71.45
2022-10-09T08:48:04.376Z,70.09
2022-10-09T08:49:04.417Z,69.75
2022-10-09T08:50:04.392Z,69.52
2022-10-09T08:51:04.337Z,68.36
2022-10-09T08:52:04.375Z,67.85
2022-10-09T08:53:04.311Z,67.07
2022-10-09T08:54:04.308Z,65.64
2022-10-09T08:55:04.319Z,65.81
2022-10-09T08:56:04.325Z,66.28
2022-10-09T08:57:04.294Z,66.59
2022-10-09T08:58:04.307Z,66.28
2022-10-09T08:59:04.259Z,65.92
2022-10-09T09:00:04.260Z,65.20
2022-10-09T09:01:04.294Z,65.00
2022-10-09T09:02:04.305Z,64.73
2022-10-09T09:03:04.263Z,63.92
2022-10-09T09:04:04.202Z,63.38
2022-10-09T09:05:04.211Z,63.51
2022-10-09T09:06:04.184Z,64.25
2022-10-09T09:07:04.192Z,64.79
2022-10-09T09:08:04.163Z,65.71
2022-10-09T09:09:04.135Z,65.31
2022-10-09T09:10:04.113Z,65.17
2022-10-09T09:11:04.137Z,64.53
2022-10-09T09:12:04.128Z,63.68
2022-10-09T09:13:04.137Z,61.63
2022-10-09T09:14:04.097Z,58.14
2022-10-09T09:15:04.098Z,54.99
2022-10-09T09:16:04.119Z,53.42
2022-10-09T09:17:04.053Z,53.63
2022-10-09T09:18:04.047Z,51.93
2022-10-09T09:19:04.046Z,50.07
2022-10-09T09:20:04.031Z,48.58
2022-10-09T09:21:04.017Z,47.88
2022-10-09T09:22:03.987Z,47.45
2022-10-09T09:23:04.002Z,47.15
2022-10-09T09:24:04.003Z,47.13
2022-10-09T09:25:04.002Z,46.73
2022-10-09T09:26:03.969Z,46.30
2022-10-09T09:27:03.973Z,46.30
2022-10-09T09:28:04.740Z,46.08
2022-10-09T09:29:03.944Z,45.45
2022-10-09T09:30:03.941Z,44.95
2022-10-09T09:31:03.960Z,44.53
2022-10-09T09:32:03.895Z,44.40
2022-10-09T09:33:03.904Z,44.18
2022-10-09T09:34:03.864Z,43.78
2022-10-09T09:35:03.933Z,43.26
2022-10-09T09:36:03.852Z,43.06
2022-10-09T09:37:03.853Z,43.16
2022-10-09T09:38:03.822Z,43.38
2022-10-09T09:41:04.775Z,43.70
2022-10-09T09:42:03.805Z,43.40
2022-10-09T09:43:05.086Z,43.06
2022-10-09T09:44:03.771Z,42.33
2022-10-09T09:45:03.802Z,41.83
2022-10-09T09:46:03.743Z,41.82
2022-10-09T09:47:03.751Z,42.05
2022-10-09T09:48:03.718Z,43.08
2022-10-09T09:49:08.518Z,43.40
2022-10-09T09:50:04.762Z,43.48
2022-10-09T09:51:27.320Z,42.94
2022-10-09T09:52:04.658Z,42.54
2022-10-09T09:53:03.689Z,41.91
2022-10-09T09:54:03.683Z,41.99
2022-10-09T09:55:03.630Z,41.79
2022-10-09T09:56:03.662Z,41.27
2022-10-09T09:57:22.012Z,40.95
2022-10-09T09:58:04.609Z,40.85
2022-10-09T09:59:03.589Z,40.83
2022-10-09T10:00:03.595Z,40.63
2022-10-09T10:01:03.673Z,40.52
2022-10-09T10:02:03.688Z,40.71
2022-10-09T10:03:03.533Z,40.31
2022-10-09T10:04:03.540Z,40.61
2022-10-09T10:05:03.527Z,40.52
2022-10-09T10:06:03.518Z,40.52
2022-10-09T10:07:03.519Z,40.71
2022-10-09T10:08:03.575Z,40.59
2022-10-09T10:09:03.500Z,40.50
2022-10-09T10:10:03.456Z,40.08
2022-10-09T10:11:03.473Z,39.65
2022-10-09T10:12:03.492Z,40.37
2022-10-09T10:13:03.442Z,40.47
2022-10-09T10:14:03.458Z,40.30
2022-10-09T10:15:03.442Z,40.50
2022-10-09T10:16:03.521Z,40.91
2022-10-09T10:17:03.453Z,41.11
2022-10-09T10:18:03.412Z,40.80
2022-10-09T10:19:03.360Z,40.58
2022-10-09T10:20:03.360Z,39.95
2022-10-09T10:21:03.386Z,39.32
2022-10-09T10:22:03.339Z,38.60
2022-10-09T10:23:03.339Z,38.31
2022-10-09T10:24:03.306Z,38.32
2022-10-09T10:25:03.311Z,39.98
2022-10-09T10:26:03.316Z,40.69
2022-10-09T10:27:03.294Z,40.58
2022-10-09T10:28:03.332Z,39.95
2022-10-09T10:29:03.287Z,40.25
2022-10-09T10:30:03.255Z,39.52
2022-10-09T10:31:03.303Z,38.80
2022-10-09T10:32:03.253Z,38.59
2022-10-09T10:33:03.243Z,38.05
2022-10-09T10:34:03.208Z,37.13
2022-10-09T10:35:03.199Z,37.25
2022-10-09T10:36:03.206Z,37.35
2022-10-09T10:37:03.603Z,37.77
2022-10-09T10:38:03.191Z,38.18
2022-10-09T10:39:03.166Z,38.48
2022-10-09T10:40:03.172Z,37.98
2022-10-09T10:41:03.156Z,38.48
2022-10-09T10:42:03.109Z,38.86
2022-10-09T10:43:03.129Z,38.45
2022-10-09T10:44:03.119Z,38.65
2022-10-09T10:45:03.105Z,38.15
2022-10-09T10:46:03.125Z,37.53
2022-10-09T10:47:03.081Z,37.23
2022-10-09T10:48:03.061Z,36.92
2022-10-09T10:49:03.075Z,35.91
2022-10-09T10:50:03.064Z,36.50
2022-10-09T10:51:03.050Z,36.50
2022-10-09T10:52:03.025Z,36.80
2022-10-09T10:53:03.018Z,36.49
2022-10-09T10:54:03.054Z,36.68
2022-10-09T10:55:03.005Z,37.48
2022-10-09T10:56:05.328Z,37.46
2022-10-09T10:57:02.969Z,37.64
2022-10-09T10:58:02.966Z,37.16
2022-10-09T10:59:02.926Z,37.99
2022-10-09T11:00:02.937Z,38.69
2022-10-09T11:01:02.968Z,37.98
2022-10-09T11:02:02.918Z,36.96
2022-10-09T11:03:02.947Z,36.92
2022-10-09T11:04:02.881Z,37.40
2022-10-09T11:05:02.938Z,36.92
2022-10-09T11:06:02.892Z,35.03
2022-10-09T11:07:02.879Z,34.66
2022-10-09T11:08:02.841Z,35.69
2022-10-09T11:09:02.833Z,36.01
2022-10-09T11:10:02.875Z,35.41
2022-10-09T11:11:02.824Z,35.59
2022-10-09T11:12:02.792Z,35.29
2022-10-09T11:13:03.162Z,35.49
2022-10-09T11:14:02.794Z,35.39
2022-10-09T11:15:02.773Z,35.58
2022-10-09T11:16:02.847Z,34.96
2022-10-09T11:17:02.743Z,35.21
2022-10-09T11:18:02.754Z,35.54
2022-10-09T11:19:02.725Z,35.80
2022-10-09T11:20:02.714Z,36.29
2022-10-09T11:21:02.795Z,38.37
2022-10-09T11:22:02.707Z,39.12
2022-10-09T11:23:02.736Z,38.56
2022-10-09T11:24:02.680Z,38.32
2022-10-09T11:25:02.688Z,37.88
2022-10-09T11:26:02.715Z,37.60
2022-10-09T11:27:03.771Z,38.00
2022-10-09T11:28:02.703Z,38.18
2022-10-09T11:29:02.644Z,38.62
2022-10-09T11:30:02.617Z,38.96
2022-10-09T11:31:02.623Z,39.54
2022-10-09T11:32:02.634Z,38.62
2022-10-09T11:33:02.599Z,39.45
2022-10-09T11:34:02.565Z,39.47
2022-10-09T11:35:02.563Z,38.74
2022-10-09T11:36:02.562Z,37.79
2022-10-09T11:37:02.552Z,36.76
2022-10-09T11:38:02.522Z,36.66
2022-10-09T11:39:02.564Z,37.10
2022-10-09T11:40:02.493Z,37.59
2022-10-09T11:41:06.430Z,36.68
2022-10-09T11:42:02.485Z,36.58
2022-10-09T11:43:02.522Z,37.08
2022-10-09T11:44:02.461Z,38.20
2022-10-09T11:45:02.478Z,39.25
2022-10-09T11:46:02.506Z,39.32
2022-10-09T11:47:03.969Z,38.72
2022-10-09T11:48:02.438Z,38.76
2022-10-09T11:49:02.561Z,38.12
2022-10-09T11:50:02.424Z,38.34
2022-10-09T11:51:02.525Z,38.62
2022-10-09T11:52:02.388Z,37.60
2022-10-09T11:53:02.372Z,37.08
2022-10-09T11:54:02.362Z,35.80
2022-10-09T11:55:02.375Z,36.40
2022-10-09T11:56:02.321Z,37.10
2022-10-09T11:57:05.820Z,36.38
2022-10-09T11:58:02.315Z,36.02
2022-10-09T11:59:02.348Z,36.21
2022-10-09T12:00:02.326Z,35.55
2022-10-09T12:01:02.324Z,36.43
2022-10-09T12:02:02.363Z,36.18
2022-10-09T12:03:02.326Z,35.44
2022-10-09T12:04:02.279Z,36.16
2022-10-09T12:05:02.245Z,36.58
2022-10-09T12:06:02.285Z,36.55
2022-10-09T12:07:02.272Z,36.31
2022-10-09T12:08:02.228Z,34.99
2022-10-09T12:09:02.221Z,35.61
2022-10-09T12:10:02.199Z,34.43
2022-10-09T12:11:02.176Z,35.13
2022-10-09T12:12:02.196Z,36.28
2022-10-09T12:13:02.202Z,36.78
2022-10-09T12:14:02.182Z,36.55
2022-10-09T12:15:02.151Z,35.53
2022-10-09T12:16:02.119Z,35.51
2022-10-09T12:17:02.178Z,35.19
2022-10-09T12:18:02.124Z,35.16
2022-10-09T12:19:02.133Z,35.08
2022-10-09T12:20:02.116Z,34.69
2022-10-09T12:21:02.080Z,36.07
2022-10-09T12:22:02.053Z,36.60
2022-10-09T12:23:25.097Z,37.46
2022-10-09T12:24:03.085Z,39.01
2022-10-09T12:25:02.064Z,40.26
2022-10-09T12:26:02.013Z,41.11
2022-10-09T12:27:02.016Z,41.83
2022-10-09T12:28:02.021Z,42.24
2022-10-09T12:29:01.995Z,42.25
2022-10-09T12:30:02.047Z,42.49
2022-10-09T12:31:02.068Z,42.40
2022-10-09T12:32:01.961Z,42.52
2022-10-09T12:33:01.947Z,42.70
2022-10-09T12:34:01.979Z,42.01
2022-10-09T12:35:01.996Z,41.91
2022-10-09T12:36:01.910Z,42.52
2022-10-09T12:37:01.908Z,42.41
2022-10-09T12:38:01.935Z,42.72
2022-10-09T12:39:01.898Z,42.82
2022-10-09T12:40:01.911Z,42.84
2022-10-09T12:41:01.867Z,43.04
2022-10-09T12:42:01.858Z,43.34
2022-10-09T12:43:01.865Z,43.65
2022-10-09T12:44:01.869Z,43.85
2022-10-09T12:45:01.800Z,43.95
2022-10-09T12:46:01.873Z,44.05
2022-10-09T12:47:01.780Z,43.65
2022-10-09T12:48:01.825Z,43.95
2022-10-09T12:49:01.774Z,44.35
2022-10-09T12:50:01.771Z,43.34
2022-10-09T12:51:01.758Z,43.65
2022-10-09T12:52:01.744Z,43.65
2022-10-09T12:53:01.757Z,43.44
2022-10-09T12:54:01.712Z,43.65